• Join FlightAware (Why Join?)
  • Login
  • US Flag 
07:32PM EDT


 

Airport Tracker/Info


-or-


 

Live Flight TrackerFlight Track Log ✈ EJA982 ✈ 06-May-2013 ✈ KLGA - KSWF

Flight Track Log - Related Links

Times and Time Zones

All times are in EDT time to prevent confusion due to time zone crossing. See the EJA982 flight status page for this flight to view local times or setup timezone preferences in your user account.

Time Position Orientation Groundspeed Altitude Reporting Facility
EDT Latitude Longitude Course Direction KTS MPH feet Rate Location/Type
10:01PM 40.8448 -73.8087 27° Northeast  Level Estimated
10:02PM 40.9667 -73.8333 299° West 270 311 5,100  Level New York TRACON
10:03PM 41.0333 -73.8833 331° Northwest 277 319 5,100  Level New York TRACON
10:04PM 41.1965 -73.6089 24° Northeast  Level FlightAware Approximate
10:04PM 41.0833 -73.9500 315° West 274 315 5,100  Level New York TRACON
10:05PM 41.1333 -74.0167 315° West 275 316 5,100  Level New York TRACON
10:06PM 41.2000 -74.1000 317° Northwest 272 313 5,100  Level New York TRACON
10:07PM 41.2500 -74.1667 315° West 278 320 5,100 -60 Level New York TRACON
10:08PM 41.3172 -73.6846 299° West  Level FlightAware Approximate
10:08PM 41.3000 -74.2333 315° West 273 314 5,000  Level New York TRACON
10:09PM 41.3667 -74.2667 339° North 281 323 4,600 -660 Descending New York TRACON
10:10PM 41.4333 -74.2333 21° North 251 289 3,700 -1,260 Descending New York TRACON
10:11PM 41.4833 -74.2000 27° Northeast 202 232 2,000 -1,500 Descending New York TRACON
10:12PM 41.5000 -74.1500 66° East 141 162 900 -1,260 Descending New York TRACON
10:14PM 41.5000 -74.1000 298° West  Level FlightAware Approximate
10:21PM 41.5041 -74.1048 298° West  Level Estimated
10:22PM 41.5000 -74.1000 298° West  Level FlightAware Approximate
10:23PM 41.5041 -74.1048 298° West  Level Estimated
10:24PM 41.5000 -74.1000 298° West  Level FlightAware Approximate
10:25PM 41.5041 -74.1048 298° West  Level Estimated
10:26PM 41.5000 -74.1000 298° West  Level FlightAware Approximate
10:27PM 41.5041 -74.1048 298° West  Level Estimated